createdAt,value
2022-11-12T00:02:33.018Z,7.86
2022-11-12T00:05:21.673Z,7.89
2022-11-12T00:08:08.936Z,7.89
2022-11-12T00:10:55.903Z,7.91
2022-11-12T00:13:42.912Z,7.91
2022-11-12T00:16:29.639Z,7.90
2022-11-12T00:19:16.872Z,7.93
2022-11-12T00:22:05.160Z,7.94
2022-11-12T00:24:52.099Z,7.95
2022-11-12T00:27:39.408Z,7.97
2022-11-12T00:30:26.285Z,7.98
2022-11-12T00:33:12.923Z,7.98
2022-11-12T00:36:01.055Z,7.99
2022-11-12T00:38:49.327Z,7.99
2022-11-12T00:41:36.136Z,8.01
2022-11-12T00:44:22.841Z,8.02
2022-11-12T00:47:10.173Z,8.00
2022-11-12T00:49:57.223Z,8.00
2022-11-12T00:52:44.166Z,8.01
2022-11-12T00:55:32.179Z,8.01
2022-11-12T00:58:19.158Z,7.99
2022-11-12T01:01:08.555Z,7.97
2022-11-12T01:03:55.769Z,7.97
2022-11-12T01:06:43.057Z,7.95
2022-11-12T01:09:30.422Z,7.92
2022-11-12T01:12:18.619Z,7.91
2022-11-12T01:15:07.779Z,7.89
2022-11-12T01:17:55.074Z,7.88
2022-11-12T01:20:42.421Z,7.87
2022-11-12T01:23:29.966Z,7.89
2022-11-12T01:26:20.761Z,7.87
2022-11-12T01:29:09.261Z,7.86
2022-11-12T01:31:56.161Z,7.84
2022-11-12T01:34:43.427Z,7.82
2022-11-12T01:37:30.738Z,7.82
2022-11-12T01:40:17.917Z,7.77
2022-11-12T01:43:05.081Z,7.77
2022-11-12T01:45:53.836Z,7.78
2022-11-12T01:48:50.047Z,7.80
2022-11-12T01:51:44.663Z,7.82
2022-11-12T01:54:32.449Z,7.83
2022-11-12T01:57:30.709Z,7.84
2022-11-12T02:00:21.610Z,7.84
2022-11-12T02:03:16.861Z,7.82
2022-11-12T02:06:09.037Z,7.82
2022-11-12T02:08:56.595Z,7.78
2022-11-12T02:11:44.010Z,7.78
2022-11-12T02:14:30.359Z,7.77
2022-11-12T02:17:17.802Z,7.77
2022-11-12T02:20:09.559Z,7.76
2022-11-12T02:22:57.886Z,7.77
2022-11-12T02:25:44.538Z,7.76
2022-11-12T02:28:33.783Z,7.77
2022-11-12T02:31:20.691Z,7.74
2022-11-12T02:34:07.671Z,7.73
2022-11-12T02:36:54.549Z,7.71
2022-11-12T02:39:42.803Z,7.71
2022-11-12T02:42:30.110Z,7.71
2022-11-12T02:45:17.532Z,7.70
2022-11-12T02:48:04.808Z,7.69
2022-11-12T02:50:51.966Z,7.67
2022-11-12T02:53:39.208Z,7.66
2022-11-12T02:56:27.484Z,7.64
2022-11-12T02:59:14.627Z,7.63
2022-11-12T03:02:01.676Z,7.62
2022-11-12T03:04:49.634Z,7.60
2022-11-12T03:07:37.178Z,7.58
2022-11-12T03:10:23.957Z,7.55
2022-11-12T03:13:12.300Z,7.55
2022-11-12T03:16:01.608Z,7.54
2022-11-12T03:18:48.499Z,7.53
2022-11-12T03:21:35.295Z,7.52
2022-11-12T03:24:22.538Z,7.53
2022-11-12T03:27:09.328Z,7.54
2022-11-12T03:29:57.468Z,7.55
2022-11-12T03:32:44.633Z,7.55
2022-11-12T03:35:32.295Z,7.54
2022-11-12T03:38:19.327Z,7.52
2022-11-12T03:41:06.564Z,7.52
2022-11-12T03:43:53.414Z,7.49
2022-11-12T03:46:44.168Z,7.47
2022-11-12T03:49:31.697Z,7.44
2022-11-12T03:52:18.636Z,7.42
2022-11-12T03:55:06.028Z,7.41
2022-11-12T03:57:54.624Z,7.41
2022-11-12T04:00:41.944Z,7.37
2022-11-12T04:03:30.090Z,7.37
2022-11-12T04:06:34.582Z,7.38
2022-11-12T04:09:21.993Z,7.39
2022-11-12T04:12:22.965Z,7.39
2022-11-12T04:15:10.844Z,7.37
2022-11-12T04:18:15.416Z,7.35
2022-11-12T04:21:21.215Z,7.28
2022-11-12T04:24:08.066Z,7.23
2022-11-12T04:26:53.918Z,7.21
2022-11-12T04:29:58.614Z,7.21
2022-11-12T04:32:49.799Z,7.19
2022-11-12T04:35:36.867Z,7.15
2022-11-12T04:38:25.445Z,7.12
2022-11-12T04:41:30.463Z,7.08
2022-11-12T04:44:35.167Z,7.07
2022-11-12T04:47:22.294Z,7.04
2022-11-12T04:50:15.380Z,7.04
2022-11-12T04:53:02.815Z,7.01
2022-11-12T04:55:53.056Z,6.97
2022-11-12T04:58:40.292Z,6.94
2022-11-12T05:01:27.233Z,6.92
2022-11-12T05:04:14.570Z,6.90
2022-11-12T05:07:02.466Z,6.88
2022-11-12T05:09:49.823Z,6.88
2022-11-12T05:12:38.114Z,6.89
2022-11-12T05:15:25.357Z,6.85
2022-11-12T05:18:12.324Z,6.84
2022-11-12T05:21:18.927Z,6.80
2022-11-12T05:24:06.747Z,6.76
2022-11-12T05:26:54.593Z,6.76
2022-11-12T05:29:43.663Z,6.76
2022-11-12T05:32:30.539Z,6.75
2022-11-12T05:35:17.596Z,6.75
2022-11-12T05:38:04.559Z,6.75
2022-11-12T05:40:51.782Z,6.74
2022-11-12T05:43:38.527Z,6.74
2022-11-12T05:46:26.976Z,6.73
2022-11-12T05:49:14.271Z,6.72
2022-11-12T05:52:01.224Z,6.71
2022-11-12T05:54:48.079Z,6.70
2022-11-12T05:57:34.818Z,6.68
2022-11-12T06:00:22.202Z,6.68
2022-11-12T06:03:11.776Z,6.65
2022-11-12T06:05:59.058Z,6.63
2022-11-12T06:08:46.134Z,6.62
2022-11-12T06:11:34.078Z,6.60
2022-11-12T06:14:21.255Z,6.61
2022-11-12T06:17:08.172Z,6.61
2022-11-12T06:19:56.474Z,6.62
2022-11-12T06:22:43.075Z,6.62
2022-11-12T06:25:30.658Z,6.60
2022-11-12T06:28:17.710Z,6.58
2022-11-12T06:31:04.784Z,6.56
2022-11-12T06:33:52.046Z,6.58
2022-11-12T06:36:40.371Z,6.59
2022-11-12T06:39:27.468Z,6.59
2022-11-12T06:42:14.548Z,6.58
2022-11-12T06:45:01.702Z,6.59
2022-11-12T06:47:48.480Z,6.59
2022-11-12T06:50:35.670Z,6.58
2022-11-12T06:53:24.263Z,6.56
2022-11-12T06:56:13.449Z,6.57
2022-11-12T06:59:00.559Z,6.60
2022-11-12T07:01:47.472Z,6.61
2022-11-12T07:04:34.106Z,6.64
2022-11-12T07:07:21.326Z,6.65
2022-11-12T07:10:10.776Z,6.66
2022-11-12T07:12:57.348Z,6.67
2022-11-12T07:15:44.639Z,6.69
2022-11-12T07:18:32.470Z,6.71
2022-11-12T07:21:21.781Z,6.71
2022-11-12T07:24:09.633Z,6.73
2022-11-12T07:26:57.856Z,6.76
2022-11-12T07:29:48.946Z,6.78
2022-11-12T07:32:43.260Z,6.78
2022-11-12T07:35:31.815Z,6.77
2022-11-12T07:38:18.910Z,6.76
2022-11-12T07:41:08.452Z,6.80
2022-11-12T07:43:56.867Z,6.84
2022-11-12T07:46:44.027Z,6.88
2022-11-12T07:49:31.055Z,6.92
2022-11-12T07:52:18.022Z,6.95
2022-11-12T07:55:06.019Z,6.94
2022-11-12T07:57:53.996Z,6.92
2022-11-12T08:00:42.351Z,6.92
2022-11-12T08:03:29.378Z,6.94
2022-11-12T08:06:16.379Z,6.95
2022-11-12T08:09:06.853Z,6.94
2022-11-12T08:11:55.683Z,6.91
2022-11-12T08:14:42.940Z,6.90
2022-11-12T08:17:31.186Z,6.91
2022-11-12T08:20:18.554Z,6.91
2022-11-12T08:23:05.922Z,6.90
2022-11-12T08:25:52.774Z,6.93
2022-11-12T08:28:40.603Z,6.95
2022-11-12T08:31:27.823Z,6.97
2022-11-12T08:34:20.126Z,6.99
2022-11-12T08:37:10.031Z,6.97
2022-11-12T08:39:56.900Z,6.98
2022-11-12T08:42:43.913Z,7.00
2022-11-12T08:45:33.315Z,7.00
2022-11-12T08:48:20.498Z,6.99
2022-11-12T08:51:09.043Z,7.01
2022-11-12T08:53:56.158Z,7.06
2022-11-12T08:56:43.559Z,7.08
2022-11-12T08:59:30.539Z,7.09
2022-11-12T09:02:17.665Z,7.09
2022-11-12T09:05:04.879Z,7.11
2022-11-12T09:07:59.967Z,7.12
2022-11-12T09:10:48.107Z,7.14
2022-11-12T09:13:35.904Z,7.12
2022-11-12T09:16:24.189Z,7.12
2022-11-12T09:19:11.537Z,7.15
2022-11-12T09:21:58.693Z,7.18
2022-11-12T09:24:46.826Z,7.21
2022-11-12T09:27:33.955Z,7.24
2022-11-12T09:30:21.325Z,7.19
2022-11-12T09:33:08.500Z,7.21
2022-11-12T09:35:57.148Z,7.20
2022-11-12T09:38:44.330Z,7.23
2022-11-12T09:41:37.574Z,7.26
2022-11-12T09:44:24.770Z,7.30
2022-11-12T09:47:19.841Z,7.37
2022-11-12T09:50:21.526Z,7.39
2022-11-12T09:53:17.656Z,7.43
2022-11-12T09:56:11.647Z,7.43
2022-11-12T09:59:00.027Z,7.43
2022-11-12T10:02:01.509Z,7.45
2022-11-12T10:05:14.814Z,7.45
2022-11-12T10:08:27.879Z,7.48
2022-11-12T10:12:06.426Z,7.48
2022-11-12T10:15:44.320Z,7.53
2022-11-12T10:18:46.736Z,7.55
2022-11-12T10:21:42.766Z,7.58
2022-11-12T10:24:36.525Z,7.61
2022-11-12T10:27:28.339Z,7.61
2022-11-12T10:30:19.717Z,7.64
2022-11-12T10:33:07.114Z,7.63
2022-11-12T10:35:54.927Z,7.65
2022-11-12T10:38:44.621Z,7.63
2022-11-12T10:41:33.837Z,7.65
2022-11-12T10:44:27.601Z,7.68
2022-11-12T10:47:32.993Z,7.69
2022-11-12T10:50:23.918Z,7.72
2022-11-12T10:53:13.786Z,7.72
2022-11-12T10:56:03.123Z,7.72
2022-11-12T10:59:12.186Z,7.72
2022-11-12T11:02:02.092Z,7.73
2022-11-12T11:04:50.381Z,7.71
2022-11-12T11:07:37.278Z,7.73
2022-11-12T11:10:27.854Z,7.78
2022-11-12T11:13:23.561Z,7.83
2022-11-12T11:16:15.093Z,7.85
2022-11-12T11:19:06.305Z,7.90
2022-11-12T11:22:39.989Z,7.88
2022-11-12T11:25:29.478Z,7.92
2022-11-12T11:28:30.263Z,7.94
2022-11-12T11:31:28.131Z,7.90
2022-11-12T11:34:30.942Z,7.88
2022-11-12T11:37:28.057Z,7.91
2022-11-12T11:40:26.626Z,7.96
2022-11-12T11:43:38.755Z,7.96
2022-11-12T11:46:46.366Z,8.01
2022-11-12T11:50:11.396Z,8.07
2022-11-12T11:53:19.949Z,8.10
2022-11-12T11:56:20.406Z,8.14
2022-11-12T11:59:26.286Z,8.18
2022-11-12T12:02:29.246Z,8.19
2022-11-12T12:05:33.886Z,8.17
2022-11-12T12:08:32.701Z,8.17
2022-11-12T12:11:28.745Z,8.19
2022-11-12T12:14:40.784Z,8.19
2022-11-12T12:17:48.875Z,8.22
2022-11-12T12:20:47.563Z,8.23
2022-11-12T12:23:41.141Z,8.24
2022-11-12T12:26:32.074Z,8.26
2022-11-12T12:29:27.225Z,8.24
2022-11-12T12:32:23.937Z,8.26
2022-11-12T12:35:23.796Z,8.27
2022-11-12T12:38:19.475Z,8.28
2022-11-12T12:41:17.826Z,8.29
2022-11-12T12:44:07.440Z,8.32
2022-11-12T12:47:00.053Z,8.34
2022-11-12T12:49:49.647Z,8.36
2022-11-12T12:53:01.693Z,8.34
2022-11-12T12:55:52.211Z,8.34
2022-11-12T12:58:47.020Z,8.33
2022-11-12T13:01:36.559Z,8.33
2022-11-12T13:04:54.967Z,8.29
2022-11-12T13:07:45.749Z,8.28
2022-11-12T13:10:49.462Z,8.22
2022-11-12T13:13:39.443Z,8.18
2022-11-12T13:17:00.341Z,8.11
2022-11-12T13:20:09.335Z,8.13
2022-11-12T13:22:58.008Z,8.14
2022-11-12T13:25:45.052Z,8.16
2022-11-12T13:28:32.198Z,8.16
2022-11-12T13:31:30.520Z,8.16
2022-11-12T13:34:26.972Z,8.18
2022-11-12T13:37:22.190Z,8.18
2022-11-12T13:40:16.610Z,8.21
2022-11-12T13:43:14.016Z,8.22
2022-11-12T13:46:20.027Z,8.25
2022-11-12T13:49:12.414Z,8.28
2022-11-12T13:52:00.746Z,8.27
2022-11-12T13:54:47.938Z,8.28
2022-11-12T13:57:35.845Z,8.26
2022-11-12T14:00:29.844Z,8.23
2022-11-12T14:03:20.159Z,8.21
2022-11-12T14:06:20.768Z,8.20
2022-11-12T14:09:31.858Z,8.21
2022-11-12T14:12:48.210Z,8.20
2022-11-12T14:15:59.893Z,8.20
2022-11-12T14:19:15.146Z,8.17
2022-11-12T14:22:12.051Z,8.16
2022-11-12T14:25:02.453Z,8.12
2022-11-12T14:27:51.791Z,8.10
2022-11-12T14:30:45.955Z,8.10
2022-11-12T14:33:34.052Z,8.11
2022-11-12T14:36:22.208Z,8.12
2022-11-12T14:39:12.697Z,8.13
2022-11-12T14:42:01.278Z,8.12
2022-11-12T14:44:49.405Z,8.10
2022-11-12T14:47:36.550Z,8.10
2022-11-12T14:50:30.204Z,8.06
2022-11-12T14:53:27.769Z,8.01
2022-11-12T14:56:25.614Z,8.00
2022-11-12T14:59:15.075Z,7.98
2022-11-12T15:02:34.953Z,7.97
2022-11-12T15:05:22.083Z,7.96
2022-11-12T15:08:13.243Z,7.93
2022-11-12T15:11:21.742Z,7.90
2022-11-12T15:14:21.459Z,7.88
2022-11-12T15:17:29.834Z,7.84
2022-11-12T15:20:20.057Z,7.82
2022-11-12T15:23:07.318Z,7.78
2022-11-12T15:25:59.938Z,7.77
2022-11-12T15:29:00.212Z,7.76
2022-11-12T15:31:49.390Z,7.76
2022-11-12T15:34:49.479Z,7.75
2022-11-12T15:37:43.376Z,7.74
2022-11-12T15:40:31.876Z,7.73
2022-11-12T15:43:22.412Z,7.73
2022-11-12T15:46:14.745Z,7.72
2022-11-12T15:49:02.494Z,7.71
2022-11-12T15:51:50.635Z,7.69
2022-11-12T15:54:41.041Z,7.70
2022-11-12T15:57:32.690Z,7.69
2022-11-12T16:00:22.467Z,7.70
2022-11-12T16:03:15.858Z,7.70
2022-11-12T16:06:08.676Z,7.71
2022-11-12T16:08:57.190Z,7.70
2022-11-12T16:11:44.478Z,7.71
2022-11-12T16:14:32.083Z,7.72
2022-11-12T16:17:20.014Z,7.73
2022-11-12T16:20:15.789Z,7.72
2022-11-12T16:23:03.176Z,7.74
2022-11-12T16:25:51.172Z,7.74
2022-11-12T16:28:38.040Z,7.75
2022-11-12T16:31:25.264Z,7.76
2022-11-12T16:34:12.820Z,7.75
2022-11-12T16:37:00.127Z,7.75
2022-11-12T16:39:47.338Z,7.76
2022-11-12T16:42:35.643Z,7.78
2022-11-12T16:45:24.191Z,7.78
2022-11-12T16:48:18.176Z,7.81
2022-11-12T16:51:05.456Z,7.82
2022-11-12T16:53:52.511Z,7.83
2022-11-12T16:56:39.710Z,7.85
2022-11-12T16:59:27.858Z,7.86
2022-11-12T17:02:16.810Z,7.86
2022-11-12T17:05:04.638Z,7.89
2022-11-12T17:07:56.426Z,7.89
2022-11-12T17:10:43.670Z,7.91
2022-11-12T17:13:30.726Z,7.91
2022-11-12T17:16:18.702Z,7.90
2022-11-12T17:19:05.948Z,7.90
2022-11-12T17:21:53.564Z,7.90
2022-11-12T17:24:40.350Z,7.89
2022-11-12T17:27:27.702Z,7.90
2022-11-12T17:30:15.056Z,7.91
2022-11-12T17:33:03.046Z,7.91
2022-11-12T17:35:50.318Z,7.90
2022-11-12T17:38:37.650Z,7.88
2022-11-12T17:41:25.508Z,7.87
2022-11-12T17:44:17.305Z,7.88
2022-11-12T17:47:04.597Z,7.88
2022-11-12T17:49:52.571Z,7.89
2022-11-12T17:52:39.555Z,7.89
2022-11-12T17:55:26.257Z,7.90
2022-11-12T17:58:13.647Z,7.91
2022-11-12T18:01:08.259Z,7.91
2022-11-12T18:03:57.610Z,7.91
2022-11-12T18:06:45.909Z,7.92
2022-11-12T18:09:32.842Z,7.92
2022-11-12T18:12:19.759Z,7.91
2022-11-12T18:15:07.346Z,7.92
2022-11-12T18:17:54.272Z,7.92
2022-11-12T18:20:42.474Z,7.91
2022-11-12T18:23:30.740Z,7.90
2022-11-12T18:26:19.137Z,7.91
2022-11-12T18:29:07.256Z,7.90
2022-11-12T18:31:54.079Z,7.89
2022-11-12T18:34:44.886Z,7.89
2022-11-12T18:37:32.055Z,7.88
2022-11-12T18:40:21.883Z,7.88
2022-11-12T18:43:08.780Z,7.88
2022-11-12T18:45:56.123Z,7.87
2022-11-12T18:48:42.937Z,7.89
2022-11-12T18:51:29.994Z,7.88
2022-11-12T18:54:16.770Z,7.87
2022-11-12T18:57:04.995Z,7.86
2022-11-12T18:59:55.110Z,7.87
2022-11-12T19:02:43.131Z,7.87
2022-11-12T19:05:30.259Z,7.89
2022-11-12T19:08:19.249Z,7.89
2022-11-12T19:11:09.251Z,7.90
2022-11-12T19:13:57.670Z,7.92
2022-11-12T19:16:45.016Z,7.94
2022-11-12T19:19:32.287Z,7.93
2022-11-12T19:22:19.387Z,7.93
2022-11-12T19:25:07.233Z,7.94
2022-11-12T19:27:54.915Z,7.93
2022-11-12T19:30:43.172Z,7.92
2022-11-12T19:33:30.227Z,7.91
2022-11-12T19:36:19.432Z,7.93
2022-11-12T19:39:06.429Z,7.94
2022-11-12T19:41:53.502Z,7.95
2022-11-12T19:44:40.817Z,7.94
2022-11-12T19:47:29.243Z,7.95
2022-11-12T19:50:18.808Z,7.95
2022-11-12T19:53:09.543Z,7.94
2022-11-12T19:56:01.419Z,7.92
2022-11-12T19:58:49.016Z,7.92
2022-11-12T20:01:36.327Z,7.92
2022-11-12T20:04:24.618Z,7.94
2022-11-12T20:07:11.842Z,7.94
2022-11-12T20:10:01.084Z,7.95
2022-11-12T20:12:48.986Z,7.96
2022-11-12T20:15:38.470Z,7.96
2022-11-12T20:18:26.587Z,7.97
2022-11-12T20:21:14.875Z,7.97
2022-11-12T20:24:02.427Z,7.94
2022-11-12T20:26:49.460Z,7.94
2022-11-12T20:29:36.754Z,7.92
2022-11-12T20:32:24.123Z,7.90
2022-11-12T20:35:17.731Z,7.89
2022-11-12T20:38:09.272Z,7.89
2022-11-12T20:41:02.638Z,7.86
2022-11-12T20:43:52.964Z,7.87
2022-11-12T20:46:39.819Z,7.86
2022-11-12T20:49:26.710Z,7.87
2022-11-12T20:52:13.558Z,7.86
2022-11-12T20:55:02.458Z,7.88
2022-11-12T20:57:49.458Z,7.88
2022-11-12T21:00:36.506Z,7.87
2022-11-12T21:03:23.374Z,7.84
2022-11-12T21:06:12.826Z,7.82
2022-11-12T21:09:00.796Z,7.78
2022-11-12T21:11:49.338Z,7.77
2022-11-12T21:14:36.345Z,7.75
2022-11-12T21:17:23.675Z,7.74
2022-11-12T21:20:11.506Z,7.75
2022-11-12T21:22:58.717Z,7.72
2022-11-12T21:25:46.296Z,7.72
2022-11-12T21:28:38.145Z,7.71
2022-11-12T21:31:28.015Z,7.73
2022-11-12T21:34:15.060Z,7.72
2022-11-12T21:37:02.199Z,7.70
2022-11-12T21:39:49.875Z,7.68
2022-11-12T21:42:36.855Z,7.68
2022-11-12T21:45:25.135Z,7.65
2022-11-12T21:48:12.043Z,7.62
2022-11-12T21:51:04.700Z,7.59
2022-11-12T21:53:55.853Z,7.58
2022-11-12T21:56:43.974Z,7.60
2022-11-12T21:59:31.322Z,7.60
2022-11-12T22:02:19.695Z,7.59
2022-11-12T22:05:07.223Z,7.60
2022-11-12T22:07:54.839Z,7.60
2022-11-12T22:10:41.602Z,7.61
2022-11-12T22:13:29.142Z,7.59
2022-11-12T22:16:18.338Z,7.59
2022-11-12T22:19:06.511Z,7.57
2022-11-12T22:21:53.864Z,7.54
2022-11-12T22:24:40.880Z,7.52
2022-11-12T22:27:31.351Z,7.50
2022-11-12T22:30:18.416Z,7.48
2022-11-12T22:33:05.877Z,7.43
2022-11-12T22:35:54.187Z,7.38
2022-11-12T22:38:42.921Z,7.34
2022-11-12T22:41:32.159Z,7.31
2022-11-12T22:44:20.583Z,7.30
2022-11-12T22:47:07.845Z,7.31
2022-11-12T22:49:55.019Z,7.29
2022-11-12T22:52:48.883Z,7.25
2022-11-12T22:55:36.799Z,7.23
2022-11-12T22:58:23.973Z,7.24
2022-11-12T23:01:18.578Z,7.24
2022-11-12T23:04:07.910Z,7.24
2022-11-12T23:06:55.256Z,7.23
2022-11-12T23:09:43.801Z,7.21
2022-11-12T23:12:30.890Z,7.17
2022-11-12T23:15:18.031Z,7.16
2022-11-12T23:18:05.490Z,7.18
2022-11-12T23:20:52.794Z,7.16
2022-11-12T23:23:40.643Z,7.17
2022-11-12T23:26:32.114Z,7.11
2022-11-12T23:29:19.462Z,7.10
2022-11-12T23:32:06.468Z,7.11
2022-11-12T23:34:53.384Z,7.09
2022-11-12T23:37:40.363Z,7.09
2022-11-12T23:40:31.118Z,7.08
2022-11-12T23:43:19.222Z,7.08
2022-11-12T23:46:06.382Z,7.09
2022-11-12T23:48:53.307Z,7.10
2022-11-12T23:51:39.978Z,7.11
2022-11-12T23:54:27.176Z,7.11
2022-11-12T23:57:14.213Z,7.09
